createdAt,value
2019-01-15T00:01:51.844Z,2.00
2019-01-15T00:04:22.817Z,1.87
2019-01-15T00:06:52.629Z,1.84
2019-01-15T00:09:23.409Z,1.94
2019-01-15T00:11:54.424Z,1.90
2019-01-15T00:14:23.719Z,1.90
2019-01-15T00:16:53.017Z,1.91
2019-01-15T00:19:22.467Z,1.74
2019-01-15T00:21:51.676Z,1.95
2019-01-15T00:24:21.266Z,1.88
2019-01-15T00:26:51.682Z,1.94
2019-01-15T00:29:20.970Z,2.07
2019-01-15T00:32:08.333Z,2.01
2019-01-15T00:34:37.552Z,2.14
2019-01-15T00:37:06.775Z,2.05
2019-01-15T00:39:36.347Z,2.07
2019-01-15T00:42:06.201Z,2.02
2019-01-15T00:44:35.571Z,2.01
2019-01-15T00:47:06.608Z,1.95
2019-01-15T00:49:35.851Z,2.02
2019-01-15T00:52:05.059Z,2.15
2019-01-15T00:54:35.486Z,2.15
2019-01-15T00:57:06.406Z,2.31
2019-01-15T00:59:35.808Z,2.15
2019-01-15T01:02:05.534Z,2.15
2019-01-15T01:04:34.817Z,2.18
2019-01-15T01:07:05.645Z,2.27
2019-01-15T01:09:34.955Z,2.02
2019-01-15T01:12:04.355Z,2.14
2019-01-15T01:14:35.485Z,2.05
2019-01-15T01:17:06.341Z,2.20
2019-01-15T01:19:40.537Z,2.15
2019-01-15T01:22:11.855Z,2.17
2019-01-15T01:24:41.185Z,1.94
2019-01-15T01:27:11.972Z,2.11
2019-01-15T01:29:42.304Z,2.02
2019-01-15T01:32:11.504Z,2.07
2019-01-15T01:34:58.899Z,2.15
2019-01-15T01:37:28.403Z,2.15
2019-01-15T01:39:57.858Z,1.95
2019-01-15T01:42:29.517Z,2.14
2019-01-15T01:45:17.726Z,1.90
2019-01-15T01:47:46.954Z,1.91
2019-01-15T01:50:16.246Z,1.91
2019-01-15T01:52:45.790Z,1.97
2019-01-15T01:55:16.875Z,1.97
2019-01-15T02:00:35.291Z,2.08
2019-01-15T02:03:04.612Z,2.15
2019-01-15T02:05:37.014Z,2.05
2019-01-15T02:08:06.841Z,1.96
2019-01-15T02:10:36.094Z,2.03
2019-01-15T02:13:05.333Z,2.07
2019-01-15T02:15:34.844Z,2.09
2019-01-15T02:18:04.574Z,2.18
2019-01-15T02:20:35.522Z,1.93
2019-01-15T02:23:04.957Z,1.93
2019-01-15T02:25:34.264Z,1.96
2019-01-15T02:28:03.595Z,2.11
2019-01-15T02:30:33.203Z,2.14
2019-01-15T02:33:02.658Z,2.13
2019-01-15T02:35:31.917Z,2.03
2019-01-15T02:38:01.831Z,2.03
2019-01-15T02:40:31.070Z,2.25
2019-01-15T02:43:00.285Z,2.21
2019-01-15T02:45:29.677Z,2.16
2019-01-15T02:47:59.932Z,2.24
2019-01-15T02:50:30.248Z,2.13
2019-01-15T02:52:59.495Z,2.02
2019-01-15T02:55:29.717Z,2.02
2019-01-15T02:57:58.950Z,2.04
2019-01-15T03:00:28.592Z,2.06
2019-01-15T03:02:57.910Z,1.94
2019-01-15T03:05:27.255Z,2.01
2019-01-15T03:07:56.486Z,2.21
2019-01-15T03:10:26.182Z,2.06
2019-01-15T03:12:57.232Z,2.28
2019-01-15T03:15:30.539Z,2.26
2019-01-15T03:17:59.786Z,2.29
2019-01-15T03:20:28.976Z,2.18
2019-01-15T03:22:58.184Z,2.39
2019-01-15T03:25:27.590Z,2.23
2019-01-15T03:27:59.025Z,2.23
2019-01-15T03:30:29.264Z,2.41
2019-01-15T03:32:58.496Z,2.18
2019-01-15T03:35:27.733Z,2.22
2019-01-15T03:37:56.962Z,2.22
2019-01-15T03:40:27.215Z,2.39
2019-01-15T03:43:03.238Z,2.39
2019-01-15T03:45:27.940Z,2.34
2019-01-15T03:47:58.688Z,2.20
2019-01-15T03:50:27.917Z,2.20
2019-01-15T03:52:59.090Z,2.43
2019-01-15T03:55:28.390Z,2.43
2019-01-15T03:57:57.615Z,2.35
2019-01-15T04:00:27.625Z,2.28
2019-01-15T04:02:58.747Z,2.39
2019-01-15T04:05:27.963Z,2.39
2019-01-15T04:08:01.492Z,2.42
2019-01-15T04:10:30.739Z,2.35
2019-01-15T04:13:00.280Z,2.30
2019-01-15T04:15:29.967Z,2.38
2019-01-15T04:17:59.469Z,2.33
2019-01-15T04:20:28.898Z,2.35
2019-01-15T04:22:58.677Z,2.43
2019-01-15T04:25:31.381Z,2.33
2019-01-15T04:28:00.566Z,2.33
2019-01-15T04:30:29.808Z,2.61
2019-01-15T04:32:59.263Z,2.50
2019-01-15T04:35:30.381Z,2.54
2019-01-15T04:38:03.693Z,2.46
2019-01-15T04:40:33.038Z,2.49
2019-01-15T04:43:03.429Z,2.32
2019-01-15T04:45:32.950Z,2.43
2019-01-15T04:48:02.156Z,2.31
2019-01-15T04:50:31.435Z,2.50
2019-01-15T04:53:02.857Z,2.50
2019-01-15T04:58:25.274Z,2.56
2019-01-15T05:00:55.804Z,2.61
2019-01-15T05:03:25.050Z,2.53
2019-01-15T05:05:54.558Z,2.71
2019-01-15T05:08:24.157Z,2.71
2019-01-15T05:13:40.674Z,2.77
2019-01-15T05:16:28.213Z,2.77
2019-01-15T05:18:57.627Z,2.62
2019-01-15T05:21:28.857Z,2.64
2019-01-15T05:23:59.224Z,2.64
2019-01-15T05:26:29.730Z,2.63
2019-01-15T05:28:59.042Z,2.73
2019-01-15T05:31:28.675Z,2.68
2019-01-15T05:33:57.939Z,2.68
2019-01-15T05:36:27.188Z,2.82
2019-01-15T05:38:56.583Z,2.82
2019-01-15T05:41:25.817Z,2.78
2019-01-15T05:43:55.035Z,2.78
2019-01-15T05:46:25.839Z,2.69
2019-01-15T05:48:55.139Z,2.82
2019-01-15T05:51:34.280Z,2.85
2019-01-15T05:54:03.674Z,3.07
2019-01-15T05:56:33.976Z,3.07
2019-01-15T05:59:03.189Z,2.91
2019-01-15T06:01:35.634Z,2.95
2019-01-15T06:04:05.433Z,3.06
2019-01-15T06:06:34.867Z,2.90
2019-01-15T06:09:05.315Z,2.95
2019-01-15T06:11:37.452Z,3.08
2019-01-15T06:14:07.206Z,2.97
2019-01-15T06:16:37.585Z,2.97
2019-01-15T06:19:07.290Z,3.00
2019-01-15T06:21:36.486Z,2.84
2019-01-15T06:24:05.987Z,2.84
2019-01-15T06:26:35.281Z,2.89
2019-01-15T06:29:05.054Z,3.06
2019-01-15T06:31:35.591Z,3.01
2019-01-15T06:36:55.999Z,3.09
2019-01-15T06:39:25.206Z,3.09
2019-01-15T06:42:12.259Z,3.07
2019-01-15T06:44:41.658Z,3.07
2019-01-15T06:47:11.369Z,3.13
2019-01-15T06:49:58.973Z,3.13
2019-01-15T06:52:29.799Z,3.21
2019-01-15T06:54:59.000Z,3.21
2019-01-15T06:57:28.299Z,3.17
2019-01-15T06:59:57.608Z,3.17
2019-01-15T07:05:14.353Z,3.14
2019-01-15T07:07:44.724Z,3.12
2019-01-15T07:10:17.784Z,3.24
2019-01-15T07:12:47.454Z,3.21
2019-01-15T07:15:17.354Z,3.14
2019-01-15T07:17:46.603Z,3.06
2019-01-15T07:20:17.457Z,3.08
2019-01-15T07:22:51.521Z,3.08
2019-01-15T07:25:21.264Z,3.27
2019-01-15T07:27:50.507Z,2.97
2019-01-15T07:30:23.832Z,2.97
2019-01-15T07:32:53.024Z,3.11
2019-01-15T07:35:23.485Z,3.23
2019-01-15T07:37:52.738Z,3.23
2019-01-15T07:40:21.965Z,3.23
2019-01-15T07:42:54.589Z,3.18
2019-01-15T07:45:23.863Z,3.14
2019-01-15T07:47:53.202Z,3.14
2019-01-15T07:50:23.260Z,3.14
2019-01-15T07:52:53.908Z,3.18
2019-01-15T07:55:23.423Z,3.29
2019-01-15T07:57:53.141Z,3.37
2019-01-15T08:00:22.696Z,3.41
2019-01-15T08:02:52.501Z,3.35
2019-01-15T08:05:23.364Z,3.31
2019-01-15T08:07:52.597Z,3.52
2019-01-15T08:10:22.096Z,3.52
2019-01-15T08:12:51.832Z,3.36
2019-01-15T08:15:22.704Z,3.36
2019-01-15T08:17:52.048Z,3.63
2019-01-15T08:20:21.245Z,3.52
2019-01-15T08:22:50.662Z,3.67
2019-01-15T08:28:07.092Z,3.59
2019-01-15T08:30:37.595Z,3.44
2019-01-15T08:33:07.015Z,3.70
2019-01-15T08:35:36.311Z,3.68
2019-01-15T08:38:06.390Z,3.76
2019-01-15T08:40:35.641Z,3.71
2019-01-15T08:43:06.207Z,3.63
2019-01-15T08:45:35.618Z,3.71
2019-01-15T08:48:10.680Z,3.67
2019-01-15T08:50:40.160Z,3.65
2019-01-15T08:53:09.463Z,3.65
2019-01-15T08:55:38.700Z,3.72
2019-01-15T08:58:09.663Z,3.72
2019-01-15T09:00:38.853Z,3.84
2019-01-15T09:03:08.153Z,3.74
2019-01-15T09:05:37.895Z,3.94
2019-01-15T09:08:07.207Z,4.04
2019-01-15T09:10:36.405Z,4.18
2019-01-15T09:13:05.757Z,4.18
2019-01-15T09:15:36.889Z,4.18
2019-01-15T09:18:23.986Z,4.18
2019-01-15T09:20:53.319Z,3.90
2019-01-15T09:23:22.512Z,3.90
2019-01-15T09:25:52.060Z,4.10
2019-01-15T09:28:22.504Z,4.18
2019-01-15T09:30:53.583Z,4.23
2019-01-15T09:33:22.959Z,4.23
2019-01-15T09:35:53.676Z,4.29
2019-01-15T09:38:22.876Z,4.16
2019-01-15T09:40:52.280Z,4.21
2019-01-15T09:43:25.186Z,4.26
2019-01-15T09:45:54.461Z,4.26
2019-01-15T09:48:30.422Z,4.41
2019-01-15T09:50:59.751Z,4.41
2019-01-15T09:53:29.403Z,4.51
2019-01-15T09:55:58.642Z,4.19
2019-01-15T09:58:27.853Z,4.19
2019-01-15T10:00:57.506Z,4.59
2019-01-15T10:03:26.745Z,4.44
2019-01-15T10:05:57.089Z,4.54
2019-01-15T10:08:26.844Z,4.65
2019-01-15T10:10:56.151Z,4.65
2019-01-15T10:13:44.259Z,4.61
2019-01-15T10:16:13.875Z,4.64
2019-01-15T10:18:43.774Z,4.64
2019-01-15T10:21:13.087Z,4.64
2019-01-15T10:23:42.336Z,4.55
2019-01-15T10:26:12.102Z,4.70
2019-01-15T10:28:42.961Z,4.71
2019-01-15T10:31:55.643Z,4.71
2019-01-15T10:34:50.478Z,4.62
2019-01-15T10:37:33.013Z,4.51
2019-01-15T10:40:06.513Z,4.51
2019-01-15T10:42:46.869Z,4.82
2019-01-15T10:45:16.195Z,4.82
2019-01-15T10:47:45.389Z,4.83
2019-01-15T10:50:14.621Z,4.91
2019-01-15T10:52:44.190Z,4.85
2019-01-15T10:55:13.507Z,4.98
2019-01-15T10:57:42.709Z,4.94
2019-01-15T11:00:14.958Z,5.04
2019-01-15T11:03:02.520Z,5.09
2019-01-15T11:05:31.731Z,5.09
2019-01-15T11:08:01.036Z,5.15
2019-01-15T11:10:30.393Z,4.99
2019-01-15T11:15:46.824Z,5.08
2019-01-15T11:18:17.367Z,5.08
2019-01-15T11:20:46.627Z,5.01
2019-01-15T11:23:15.940Z,5.17
2019-01-15T11:25:45.581Z,5.02
2019-01-15T11:28:19.474Z,5.02
2019-01-15T11:30:53.677Z,5.46
2019-01-15T11:33:23.025Z,5.46
2019-01-15T11:35:52.348Z,5.14
2019-01-15T11:38:21.693Z,5.14
2019-01-15T11:40:50.965Z,5.24
2019-01-15T11:43:22.596Z,5.18
2019-01-15T11:45:51.836Z,5.23
2019-01-15T11:48:21.400Z,5.23
2019-01-15T11:50:50.611Z,5.11
2019-01-15T11:53:20.039Z,5.45
2019-01-15T11:55:49.436Z,5.57
2019-01-15T11:58:19.042Z,5.55
2019-01-15T12:00:59.824Z,5.55
2019-01-15T12:03:42.485Z,5.75
2019-01-15T12:06:21.593Z,5.47
2019-01-15T12:09:12.940Z,5.38
2019-01-15T12:12:00.803Z,5.65
2019-01-15T12:14:47.753Z,5.73
2019-01-15T12:20:34.812Z,5.50
2019-01-15T12:23:22.959Z,5.59
2019-01-15T12:26:03.075Z,5.64
2019-01-15T12:28:52.845Z,5.29
2019-01-15T12:31:36.848Z,5.29
2019-01-15T12:34:17.355Z,5.65
2019-01-15T12:36:55.974Z,5.65
2019-01-15T12:39:44.221Z,5.60
2019-01-15T12:42:39.696Z,5.50
2019-01-15T12:45:32.127Z,5.50
2019-01-15T12:48:19.863Z,5.75
2019-01-15T12:51:13.129Z,5.60
2019-01-15T12:53:57.831Z,5.63
2019-01-15T12:56:37.927Z,5.63
2019-01-15T12:59:25.279Z,5.76
2019-01-15T13:02:13.436Z,5.68
2019-01-15T13:04:52.069Z,5.39
2019-01-15T13:07:31.821Z,5.39
2019-01-15T13:10:20.260Z,5.52
2019-01-15T13:13:03.094Z,5.51
2019-01-15T13:15:48.093Z,5.49
2019-01-15T13:18:36.335Z,5.49
2019-01-15T13:21:24.958Z,5.09
2019-01-15T13:24:14.732Z,5.21
2019-01-15T13:27:05.400Z,5.21
2019-01-15T13:29:46.335Z,5.10
2019-01-15T13:32:23.506Z,5.25
2019-01-15T13:35:11.980Z,5.15
2019-01-15T13:38:00.157Z,5.15
2019-01-15T13:40:46.247Z,4.99
2019-01-15T13:43:29.106Z,5.16
2019-01-15T13:46:35.645Z,5.09
2019-01-15T13:49:23.754Z,5.21
2019-01-15T13:52:12.144Z,5.21
2019-01-15T13:55:00.562Z,5.09
2019-01-15T13:57:48.709Z,5.18
2019-01-15T14:00:46.946Z,5.07
2019-01-15T14:06:35.490Z,5.32
2019-01-15T14:09:26.236Z,5.41
2019-01-15T14:12:11.134Z,5.41
2019-01-15T14:14:52.037Z,5.28
2019-01-15T14:17:48.327Z,5.28
2019-01-15T14:20:41.934Z,5.15
2019-01-15T14:23:22.909Z,5.08
2019-01-15T14:26:13.116Z,5.08
2019-01-15T14:28:52.991Z,5.22
2019-01-15T14:31:42.016Z,5.33
2019-01-15T14:34:24.955Z,5.33
2019-01-15T14:37:09.397Z,5.00
2019-01-15T14:39:57.688Z,5.00
2019-01-15T14:42:46.257Z,4.94
2019-01-15T14:45:37.491Z,4.96
2019-01-15T14:48:26.224Z,4.93
2019-01-15T14:51:14.445Z,4.84
2019-01-15T14:54:14.223Z,5.00
2019-01-15T14:56:59.248Z,5.02
2019-01-15T14:59:46.592Z,5.02
2019-01-15T15:02:32.171Z,5.00
2019-01-15T15:05:14.990Z,5.06
2019-01-15T15:10:59.959Z,4.78
2019-01-15T15:13:40.132Z,4.97
2019-01-15T15:16:28.448Z,4.97
2019-01-15T15:19:20.567Z,4.97
2019-01-15T15:22:08.807Z,4.87
2019-01-15T15:24:55.777Z,5.05
2019-01-15T15:27:44.711Z,4.94
2019-01-15T15:30:28.427Z,5.03
2019-01-15T15:33:11.651Z,4.97
2019-01-15T15:35:59.818Z,4.89
2019-01-15T15:38:41.478Z,4.96
2019-01-15T15:41:21.498Z,4.97
2019-01-15T15:44:09.976Z,5.13
2019-01-15T15:46:53.231Z,5.06
2019-01-15T15:49:41.438Z,5.04
2019-01-15T15:52:30.849Z,4.86
2019-01-15T15:55:19.644Z,5.06
2019-01-15T15:58:01.414Z,5.07
2019-01-15T16:00:49.974Z,5.07
2019-01-15T16:03:27.862Z,5.07
2019-01-15T16:06:11.746Z,5.09
2019-01-15T16:08:57.759Z,4.94
2019-01-15T16:11:44.882Z,5.05
2019-01-15T16:14:31.924Z,5.05
2019-01-15T16:17:10.946Z,5.05
2019-01-15T16:20:01.946Z,5.06
2019-01-15T16:22:50.596Z,4.94
2019-01-15T16:25:38.812Z,5.07
2019-01-15T16:28:39.244Z,5.03
2019-01-15T16:31:28.889Z,5.12
2019-01-15T16:34:12.235Z,5.12
2019-01-15T16:37:01.593Z,5.13
2019-01-15T16:39:42.516Z,5.13
2019-01-15T16:42:23.945Z,5.08
2019-01-15T16:45:08.792Z,5.07
2019-01-15T16:47:58.705Z,5.07
2019-01-15T16:50:46.880Z,5.12
2019-01-15T16:53:27.288Z,5.00
2019-01-15T16:56:15.599Z,5.00
2019-01-15T16:59:04.318Z,5.11
2019-01-15T17:01:57.471Z,5.23
2019-01-15T17:04:45.955Z,5.10
2019-01-15T17:07:30.997Z,5.10
2019-01-15T17:10:13.540Z,5.25
2019-01-15T17:12:58.535Z,5.14
2019-01-15T17:15:46.080Z,5.14
2019-01-15T17:18:26.875Z,5.08
2019-01-15T17:21:10.238Z,5.01
2019-01-15T17:23:59.712Z,5.09
2019-01-15T17:26:48.266Z,5.09
2019-01-15T17:29:29.712Z,5.26
2019-01-15T17:32:10.850Z,5.30
2019-01-15T17:35:00.549Z,5.09
2019-01-15T17:37:41.273Z,5.17
2019-01-15T17:40:21.109Z,5.20
2019-01-15T17:43:09.444Z,5.20
2019-01-15T17:45:54.429Z,5.24
2019-01-15T17:48:44.118Z,5.24
2019-01-15T17:51:32.393Z,5.20
2019-01-15T17:54:21.103Z,5.20
2019-01-15T17:57:10.062Z,5.20
2019-01-15T18:00:04.093Z,5.20
2019-01-15T18:03:05.160Z,5.01
2019-01-15T18:05:53.311Z,5.19
2019-01-15T18:08:37.800Z,5.24
2019-01-15T18:11:26.676Z,5.33
2019-01-15T18:14:15.766Z,5.35
2019-01-15T18:16:57.704Z,5.20
2019-01-15T18:19:38.757Z,5.18
2019-01-15T18:22:23.257Z,5.23
2019-01-15T18:25:09.097Z,5.31
2019-01-15T18:27:55.650Z,5.45
2019-01-15T18:30:42.556Z,5.37
2019-01-15T18:33:31.070Z,5.20
2019-01-15T18:36:18.455Z,5.20
2019-01-15T18:39:06.695Z,5.35
2019-01-15T18:41:46.242Z,5.26
2019-01-15T18:44:34.562Z,5.26
2019-01-15T18:47:23.146Z,5.18
2019-01-15T18:50:10.992Z,5.18
2019-01-15T18:52:59.844Z,5.13
2019-01-15T18:55:48.038Z,5.34
2019-01-15T18:58:31.339Z,5.18
2019-01-15T19:01:13.346Z,5.18
2019-01-15T19:06:58.770Z,5.26
2019-01-15T19:09:46.412Z,5.26
2019-01-15T19:12:34.904Z,5.21
2019-01-15T19:15:23.715Z,5.33
2019-01-15T19:18:14.189Z,5.33
2019-01-15T19:20:59.448Z,5.22
2019-01-15T19:23:47.794Z,5.32
2019-01-15T19:26:34.559Z,5.35
2019-01-15T19:29:19.147Z,5.46
2019-01-15T19:32:01.026Z,5.38
2019-01-15T19:34:45.926Z,5.38
2019-01-15T19:37:24.942Z,5.32
2019-01-15T19:40:04.149Z,5.21
2019-01-15T19:42:52.294Z,5.21
2019-01-15T19:45:40.973Z,5.28
2019-01-15T19:48:27.971Z,5.36
2019-01-15T19:51:12.044Z,5.40
2019-01-15T19:53:57.633Z,5.41
2019-01-15T19:56:37.457Z,5.42
2019-01-15T19:59:19.033Z,5.42
2019-01-15T20:02:07.238Z,5.43
2019-01-15T20:04:56.142Z,5.39
2019-01-15T20:07:38.593Z,5.39
2019-01-15T20:10:28.621Z,5.25
2019-01-15T20:13:04.730Z,5.25
2019-01-15T20:15:53.079Z,5.24
2019-01-15T20:18:37.732Z,5.24
2019-01-15T20:21:21.733Z,5.36
2019-01-15T20:24:09.868Z,5.36
2019-01-15T20:26:52.897Z,5.17
2019-01-15T20:29:38.363Z,5.19
2019-01-15T20:32:15.050Z,5.26
2019-01-15T20:34:55.020Z,5.26
2019-01-15T20:37:35.374Z,5.33
2019-01-15T20:40:14.102Z,5.22
2019-01-15T20:42:52.309Z,5.22
2019-01-15T20:45:33.939Z,5.16
2019-01-15T20:48:23.700Z,5.28
2019-01-15T20:51:05.867Z,5.28
2019-01-15T20:53:55.967Z,5.36
2019-01-15T20:56:44.216Z,5.29
2019-01-15T20:59:26.242Z,5.25
2019-01-15T21:02:11.835Z,5.26
2019-01-15T21:05:01.520Z,5.26
2019-01-15T21:07:51.566Z,5.21
2019-01-15T21:10:41.870Z,5.23
2019-01-15T21:13:25.757Z,5.13
2019-01-15T21:16:07.948Z,5.23
2019-01-15T21:18:50.370Z,5.24
2019-01-15T21:21:33.557Z,5.41
2019-01-15T21:24:22.951Z,5.41
2019-01-15T21:27:11.470Z,5.37
2019-01-15T21:29:59.458Z,5.37
2019-01-15T21:32:47.740Z,5.29
2019-01-15T21:35:37.100Z,5.29
2019-01-15T21:41:17.905Z,5.01
2019-01-15T21:44:06.445Z,5.32
2019-01-15T21:46:54.130Z,5.15
2019-01-15T21:49:37.653Z,5.10
2019-01-15T21:52:17.207Z,5.10
2019-01-15T21:54:56.518Z,5.26
2019-01-15T21:57:38.793Z,5.32
2019-01-15T22:00:20.353Z,5.23
2019-01-15T22:03:10.221Z,5.23
2019-01-15T22:05:51.220Z,5.24
2019-01-15T22:08:37.089Z,5.19
2019-01-15T22:11:14.900Z,5.33
2019-01-15T22:14:03.173Z,5.33
2019-01-15T22:16:51.937Z,5.12
2019-01-15T22:19:41.306Z,5.30
2019-01-15T22:22:29.970Z,5.24
2019-01-15T22:25:18.101Z,5.25
2019-01-15T22:28:07.514Z,5.25
2019-01-15T22:30:49.838Z,5.19
2019-01-15T22:33:37.961Z,5.19
2019-01-15T22:36:26.212Z,5.13
2019-01-15T22:39:11.540Z,5.19
2019-01-15T22:41:53.367Z,5.26
2019-01-15T22:44:41.869Z,5.26
2019-01-15T22:47:24.800Z,5.19
2019-01-15T22:50:13.415Z,5.19
2019-01-15T22:52:55.775Z,5.28
2019-01-15T22:55:40.334Z,5.07
2019-01-15T22:58:28.432Z,5.06
2019-01-15T23:01:17.445Z,5.06
2019-01-15T23:03:56.519Z,5.13
2019-01-15T23:06:44.709Z,5.03
2019-01-15T23:09:32.828Z,5.03
2019-01-15T23:12:19.143Z,5.12
2019-01-15T23:15:00.373Z,5.15
2019-01-15T23:17:39.085Z,5.08
2019-01-15T23:20:40.854Z,5.28
2019-01-15T23:23:25.144Z,5.14
2019-01-15T23:26:03.723Z,5.20
2019-01-15T23:28:47.710Z,5.20
2019-01-15T23:31:28.658Z,5.25
2019-01-15T23:34:17.204Z,5.25
2019-01-15T23:37:00.112Z,5.05
2019-01-15T23:39:43.270Z,5.05
2019-01-15T23:42:31.379Z,5.16
2019-01-15T23:45:19.935Z,5.16
2019-01-15T23:48:09.904Z,5.16
2019-01-15T23:51:12.630Z,5.19
2019-01-15T23:53:56.427Z,5.14
2019-01-15T23:56:42.968Z,5.14
2019-01-15T23:59:32.625Z,5.33
